createdAt,value
2023-04-02T00:00:18.184Z,2.35
2023-04-02T00:02:49.236Z,2.00
2023-04-02T00:05:51.259Z,2.20
2023-04-02T00:08:21.540Z,2.17
2023-04-02T00:10:49.939Z,2.40
2023-04-02T00:13:24.809Z,2.42
2023-04-02T00:15:53.303Z,2.65
2023-04-02T00:18:22.626Z,2.80
2023-04-02T00:20:52.185Z,3.15
2023-04-02T00:23:20.164Z,3.22
2023-04-02T00:25:47.921Z,3.63
2023-04-02T00:28:17.044Z,3.80
2023-04-02T00:30:49.139Z,4.32
2023-04-02T00:33:17.214Z,4.65
2023-04-02T00:35:46.236Z,4.50
2023-04-02T00:38:19.084Z,5.63
2023-04-02T00:40:47.045Z,5.72
2023-04-02T00:43:16.733Z,6.43
2023-04-02T00:45:51.112Z,7.43
2023-04-02T00:48:34.641Z,6.97
2023-04-02T00:51:11.575Z,7.63
2023-04-02T00:53:39.304Z,8.23
2023-04-02T00:56:09.493Z,9.75
2023-04-02T00:58:37.735Z,9.98
2023-04-02T01:01:17.432Z,10.80
2023-04-02T01:03:53.707Z,10.82
2023-04-02T01:06:23.894Z,11.82
2023-04-02T01:08:57.839Z,13.05
2023-04-02T01:11:32.891Z,13.88
2023-04-02T01:14:02.975Z,14.23
2023-04-02T01:16:36.402Z,14.30
2023-04-02T01:19:09.456Z,15.80
2023-04-02T01:21:43.028Z,16.08
2023-04-02T01:24:11.891Z,17.17
2023-04-02T01:26:53.860Z,18.55
2023-04-02T01:29:24.693Z,18.58
2023-04-02T01:31:52.749Z,20.20
2023-04-02T01:34:23.351Z,21.23
2023-04-02T01:36:59.649Z,22.00
2023-04-02T01:39:37.226Z,24.33
2023-04-02T01:42:07.395Z,25.60
2023-04-02T01:44:38.647Z,26.38
2023-04-02T01:47:08.307Z,27.70
2023-04-02T01:49:36.123Z,30.48
2023-04-02T01:52:03.889Z,30.42
2023-04-02T01:54:33.707Z,30.95
2023-04-02T01:57:01.478Z,32.08
2023-04-02T01:59:29.405Z,34.22
2023-04-02T02:02:04.355Z,36.00
2023-04-02T02:04:34.199Z,36.40
2023-04-02T02:07:01.997Z,37.70
2023-04-02T02:09:32.317Z,38.92
2023-04-02T02:12:00.171Z,41.03
2023-04-02T02:14:29.173Z,42.95
2023-04-02T02:16:57.667Z,43.78
2023-04-02T02:19:28.533Z,44.33
2023-04-02T02:21:57.604Z,47.17
2023-04-02T02:24:26.599Z,48.55
2023-04-02T02:27:01.928Z,50.58
2023-04-02T02:29:29.611Z,52.22
2023-04-02T02:31:57.491Z,53.45
2023-04-02T02:34:32.184Z,54.88
2023-04-02T02:37:01.276Z,56.42
2023-04-02T02:39:32.752Z,59.28
2023-04-02T02:42:02.166Z,61.95
2023-04-02T02:44:31.110Z,64.78
2023-04-02T02:47:00.987Z,67.72
2023-04-02T02:49:32.222Z,69.32
2023-04-02T02:52:07.596Z,71.50
2023-04-02T02:54:46.847Z,70.70
2023-04-02T02:57:15.778Z,75.40
2023-04-02T02:59:44.276Z,76.45
2023-04-02T03:02:12.031Z,78.05
2023-04-02T03:04:41.102Z,82.32
2023-04-02T03:07:16.109Z,81.65
2023-04-02T03:09:49.328Z,83.20
2023-04-02T03:12:28.455Z,82.50
2023-04-02T03:14:58.728Z,87.50
2023-04-02T03:17:28.833Z,89.22
2023-04-02T03:19:59.330Z,91.00
2023-04-02T03:22:29.723Z,90.05
2023-04-02T03:24:59.292Z,93.38
2023-04-02T03:27:28.945Z,94.75
2023-04-02T03:30:05.116Z,95.38
2023-04-02T03:32:36.627Z,95.90
2023-04-02T03:35:22.947Z,98.70
2023-04-02T03:37:54.075Z,99.97
2023-04-02T03:40:23.591Z,100.40
2023-04-02T03:42:53.538Z,102.75
2023-04-02T03:45:23.878Z,101.95
2023-04-02T03:47:53.799Z,107.30
2023-04-02T03:50:26.112Z,107.13
2023-04-02T03:52:58.087Z,107.88
2023-04-02T03:55:28.745Z,108.32
2023-04-02T03:57:59.284Z,108.95
2023-04-02T04:00:33.858Z,108.38
2023-04-02T04:03:04.412Z,110.63
2023-04-02T04:05:35.816Z,113.13
2023-04-02T04:08:06.022Z,114.07
2023-04-02T04:10:33.713Z,114.40
2023-04-02T04:13:04.038Z,119.43
2023-04-02T04:15:33.662Z,116.43
2023-04-02T04:18:04.328Z,113.35
2023-04-02T04:20:41.834Z,115.82
2023-04-02T04:23:11.919Z,120.57
2023-04-02T04:25:40.088Z,118.95
2023-04-02T04:28:17.140Z,117.65
2023-04-02T04:30:50.845Z,122.20
2023-04-02T04:33:23.105Z,119.32
2023-04-02T04:35:57.336Z,121.82
2023-04-02T04:38:32.628Z,119.88
2023-04-02T04:41:05.196Z,122.47
2023-04-02T04:43:42.048Z,120.20
2023-04-02T04:46:11.871Z,122.05
2023-04-02T04:48:42.393Z,118.78
2023-04-02T04:51:18.180Z,121.90
2023-04-02T04:53:47.738Z,121.18
2023-04-02T04:56:19.586Z,121.03
2023-04-02T04:58:53.785Z,119.78
2023-04-02T05:01:23.937Z,125.63
2023-04-02T05:03:53.049Z,118.82
2023-04-02T05:06:27.053Z,117.82
2023-04-02T05:08:56.516Z,120.43
2023-04-02T05:11:27.412Z,118.90
2023-04-02T05:13:56.338Z,121.00
2023-04-02T05:16:26.226Z,117.50
2023-04-02T05:18:56.755Z,118.72
2023-04-02T05:21:27.985Z,120.38
2023-04-02T05:23:57.199Z,121.25
2023-04-02T05:26:26.322Z,119.10
2023-04-02T05:28:55.685Z,117.07
2023-04-02T05:31:25.838Z,121.32
2023-04-02T05:33:54.392Z,121.65
2023-04-02T05:36:23.918Z,121.95
2023-04-02T05:38:57.633Z,118.50
2023-04-02T05:41:36.700Z,122.50
2023-04-02T05:44:07.562Z,118.82
2023-04-02T05:46:38.151Z,117.47
2023-04-02T05:49:08.573Z,115.10
2023-04-02T05:51:39.824Z,116.45
2023-04-02T05:54:16.986Z,117.47
2023-04-02T05:56:46.518Z,116.25
2023-04-02T05:59:16.748Z,112.95
2023-04-02T06:01:45.315Z,115.53
2023-04-02T06:04:21.610Z,113.03
2023-04-02T06:06:52.945Z,115.07
2023-04-02T06:09:31.525Z,113.97
2023-04-02T06:12:02.803Z,113.47
2023-04-02T06:14:30.602Z,113.35
2023-04-02T06:16:58.816Z,110.13
2023-04-02T06:19:30.114Z,111.38
2023-04-02T06:22:00.146Z,111.30
2023-04-02T06:24:29.518Z,109.20
2023-04-02T06:26:59.763Z,110.65
2023-04-02T06:29:30.101Z,111.45
2023-04-02T06:31:59.421Z,108.43
2023-04-02T06:34:28.562Z,108.28
2023-04-02T06:37:01.610Z,104.82
2023-04-02T06:39:32.172Z,106.07
2023-04-02T06:42:06.190Z,103.43
2023-04-02T06:44:52.121Z,102.60
2023-04-02T06:47:31.453Z,101.75
2023-04-02T06:50:01.854Z,100.55
2023-04-02T06:52:31.125Z,102.13
2023-04-02T06:55:01.120Z,101.55
2023-04-02T06:57:28.914Z,98.28
2023-04-02T06:59:56.596Z,97.95
2023-04-02T07:02:29.830Z,96.72
2023-04-02T07:05:02.332Z,98.60
2023-04-02T07:07:31.659Z,95.90
2023-04-02T07:10:03.973Z,94.38
2023-04-02T07:12:31.852Z,94.85
2023-04-02T07:14:59.541Z,96.50
2023-04-02T07:17:27.908Z,96.90
2023-04-02T07:19:55.781Z,91.45
2023-04-02T07:22:25.635Z,96.43
2023-04-02T07:24:58.638Z,94.07
2023-04-02T07:27:27.943Z,90.13
2023-04-02T07:29:55.733Z,88.28
2023-04-02T07:32:23.518Z,93.22
2023-04-02T07:34:51.634Z,89.38
2023-04-02T07:37:19.352Z,92.18
2023-04-02T07:39:47.056Z,90.05
2023-04-02T07:42:14.747Z,88.15
2023-04-02T07:44:43.820Z,86.78
2023-04-02T07:47:11.501Z,88.25
2023-04-02T07:49:39.180Z,89.78
2023-04-02T07:52:06.984Z,86.53
2023-04-02T07:54:35.680Z,84.97
2023-04-02T07:57:03.713Z,84.78
2023-04-02T07:59:31.454Z,82.85
2023-04-02T08:02:00.637Z,83.22
2023-04-02T08:04:28.331Z,81.53
2023-04-02T08:06:56.008Z,77.57
2023-04-02T08:09:23.671Z,75.53
2023-04-02T08:11:51.355Z,76.95
2023-04-02T08:14:19.035Z,83.65
2023-04-02T08:16:48.089Z,72.43
2023-04-02T08:19:17.217Z,70.07
2023-04-02T08:21:45.038Z,67.47
2023-04-02T08:24:12.762Z,68.72
2023-04-02T08:26:40.428Z,66.35
2023-04-02T08:29:08.094Z,61.50
2023-04-02T08:31:35.829Z,58.03
2023-04-02T08:34:03.552Z,57.17
2023-04-02T08:36:34.866Z,57.42
2023-04-02T08:39:02.790Z,53.53
2023-04-02T08:41:32.160Z,54.47
2023-04-02T08:44:15.157Z,49.95
2023-04-02T08:46:44.673Z,48.80
2023-04-02T08:49:13.618Z,46.20
2023-04-02T08:51:42.668Z,45.15
2023-04-02T08:54:19.344Z,41.97
2023-04-02T08:56:50.423Z,11.82
2023-04-02T08:59:21.921Z,9.93
2023-04-02T09:01:51.646Z,6.50
2023-04-02T09:04:21.197Z,5.32
2023-04-02T09:06:51.358Z,11.38
2023-04-02T09:09:19.216Z,13.45
2023-04-02T09:11:51.700Z,13.13
2023-04-02T09:14:20.759Z,14.43
2023-04-02T09:16:50.586Z,12.55
2023-04-02T09:19:20.897Z,13.25
2023-04-02T09:21:56.903Z,13.63
2023-04-02T09:24:24.722Z,12.27
2023-04-02T09:26:52.489Z,13.02
2023-04-02T09:29:35.503Z,14.32
2023-04-02T09:32:08.012Z,12.77
2023-04-02T09:34:36.430Z,13.05
2023-04-02T09:37:09.134Z,12.60
2023-04-02T09:39:37.200Z,11.35
2023-04-02T09:42:08.642Z,13.23
2023-04-02T09:44:36.983Z,13.20
2023-04-02T09:47:06.049Z,12.65
2023-04-02T09:49:34.346Z,13.18
2023-04-02T09:52:22.284Z,12.85
2023-04-02T09:55:21.689Z,12.00
2023-04-02T09:57:50.415Z,11.45
2023-04-02T10:00:31.661Z,11.40
2023-04-02T10:03:05.605Z,10.73
2023-04-02T10:05:40.617Z,10.38
2023-04-02T10:08:19.348Z,9.18
2023-04-02T10:10:48.772Z,8.30
2023-04-02T10:13:19.677Z,9.73
2023-04-02T10:15:49.678Z,8.70
2023-04-02T10:18:21.112Z,9.65
2023-04-02T10:20:51.529Z,8.40
2023-04-02T10:23:21.567Z,9.07
2023-04-02T10:25:50.773Z,10.07
2023-04-02T10:28:23.599Z,9.00
2023-04-02T10:30:54.997Z,8.27
2023-04-02T10:33:25.560Z,8.13
2023-04-02T10:35:55.322Z,9.27
2023-04-02T10:38:30.938Z,11.35
2023-04-02T10:41:00.338Z,8.43
2023-04-02T10:43:54.746Z,7.45
2023-04-02T10:46:25.409Z,7.63
2023-04-02T10:48:58.355Z,9.10
2023-04-02T10:51:29.933Z,8.05
2023-04-02T10:54:02.145Z,6.18
2023-04-02T10:56:37.696Z,6.30
2023-04-02T10:59:14.470Z,6.57
2023-04-02T11:01:42.312Z,6.90
2023-04-02T11:04:15.795Z,6.45
2023-04-02T11:06:44.808Z,5.43
2023-04-02T11:09:16.718Z,5.95
2023-04-02T11:11:45.397Z,5.65
2023-04-02T11:14:14.753Z,6.10
2023-04-02T11:16:44.580Z,4.95
2023-04-02T11:19:24.408Z,5.55
2023-04-02T11:21:58.709Z,5.28
2023-04-02T11:24:37.804Z,5.35
2023-04-02T11:27:06.999Z,5.05
2023-04-02T11:29:34.978Z,4.78
2023-04-02T11:32:15.572Z,4.70
2023-04-02T11:35:20.172Z,4.30
2023-04-02T11:37:49.616Z,3.95
2023-04-02T11:40:47.671Z,4.82
2023-04-02T11:43:50.814Z,4.75
2023-04-02T11:46:41.041Z,4.30
2023-04-02T11:49:34.960Z,4.40
2023-04-02T11:52:11.513Z,4.03
2023-04-02T11:54:40.402Z,4.43
2023-04-02T11:57:13.973Z,5.47
2023-04-02T11:59:44.025Z,5.13
2023-04-02T12:02:15.092Z,5.30
2023-04-02T12:05:04.197Z,6.05
2023-04-02T12:07:37.112Z,4.78
2023-04-02T12:10:05.769Z,4.50
2023-04-02T12:12:37.397Z,3.90
2023-04-02T12:15:08.470Z,4.38
2023-04-02T12:17:37.270Z,4.25
2023-04-02T12:20:20.245Z,3.65
2023-04-02T12:22:50.583Z,3.90
2023-04-02T12:25:24.399Z,3.25
2023-04-02T12:28:06.354Z,3.05
2023-04-02T12:30:34.225Z,3.22
2023-04-02T12:33:16.306Z,3.10
2023-04-02T12:35:44.521Z,3.17
2023-04-02T12:38:22.677Z,2.85
2023-04-02T12:40:53.990Z,3.20
2023-04-02T12:43:27.090Z,2.55
2023-04-02T12:45:55.205Z,3.33
2023-04-02T12:48:23.188Z,2.88
2023-04-02T12:50:50.902Z,3.08
2023-04-02T12:53:21.475Z,2.90
2023-04-02T12:55:49.299Z,2.65
2023-04-02T12:58:27.408Z,2.80
2023-04-02T13:01:10.414Z,3.25
2023-04-02T13:03:38.206Z,3.00
2023-04-02T13:06:12.841Z,3.40
2023-04-02T13:08:42.689Z,5.05
2023-04-02T13:11:10.521Z,4.63
2023-04-02T13:13:40.321Z,4.50
2023-04-02T13:16:22.452Z,8.75
2023-04-02T13:18:50.961Z,19.95
2023-04-02T13:21:28.343Z,9.98
2023-04-02T13:23:56.482Z,7.60
2023-04-02T13:26:25.689Z,7.80
2023-04-02T13:28:59.010Z,8.38
2023-04-02T13:31:26.721Z,6.60
2023-04-02T13:33:54.436Z,7.07
2023-04-02T13:36:22.104Z,6.75
2023-04-02T13:38:49.776Z,8.48
2023-04-02T13:41:22.557Z,9.32
2023-04-02T13:43:50.783Z,4.75
2023-04-02T13:46:22.259Z,5.60
2023-04-02T13:48:50.454Z,4.55
2023-04-02T13:51:18.752Z,5.00
2023-04-02T13:53:46.953Z,6.22
2023-04-02T13:56:14.673Z,4.70
2023-04-02T13:58:42.410Z,3.83
2023-04-02T14:01:10.141Z,4.18
2023-04-02T14:03:39.192Z,2.65
2023-04-02T14:06:10.482Z,1.60
2023-04-02T14:08:44.853Z,1.40
2023-04-02T14:11:29.089Z,2.15
2023-04-02T14:14:21.748Z,1.80
2023-04-02T14:16:53.254Z,2.10
2023-04-02T14:19:29.902Z,3.40
2023-04-02T14:22:01.922Z,4.47
2023-04-02T14:24:31.673Z,4.70
2023-04-02T14:27:21.062Z,4.30
2023-04-02T14:29:51.514Z,3.20
2023-04-02T14:32:21.800Z,3.50
2023-04-02T14:34:53.940Z,4.50
2023-04-02T14:37:23.890Z,3.28
2023-04-02T14:39:57.450Z,4.88
2023-04-02T14:42:28.779Z,5.68
2023-04-02T14:44:58.727Z,4.28
2023-04-02T14:47:29.200Z,4.00
2023-04-02T14:49:59.916Z,9.88
2023-04-02T14:52:28.230Z,3.38
2023-04-02T14:54:57.485Z,3.75
2023-04-02T14:57:26.368Z,3.50
2023-04-02T14:59:58.934Z,3.15
2023-04-02T15:02:31.459Z,2.95
2023-04-02T15:05:01.788Z,3.42
2023-04-02T15:07:32.007Z,2.85
2023-04-02T15:10:05.972Z,3.40
2023-04-02T15:12:34.455Z,3.50
2023-04-02T15:15:04.777Z,2.90
2023-04-02T15:17:32.632Z,3.17
2023-04-02T15:20:09.631Z,3.15
2023-04-02T15:22:38.267Z,3.03
2023-04-02T15:25:14.838Z,3.25
2023-04-02T15:27:53.205Z,3.40
2023-04-02T15:30:23.055Z,3.72
2023-04-02T15:32:51.332Z,2.72
2023-04-02T15:35:32.530Z,3.17
2023-04-02T15:38:02.225Z,3.33
2023-04-02T15:40:47.660Z,2.70
2023-04-02T15:43:19.741Z,3.03
2023-04-02T15:45:52.056Z,4.25
2023-04-02T15:48:37.544Z,4.43
2023-04-02T15:51:13.981Z,5.15
2023-04-02T15:53:48.195Z,7.35
2023-04-02T15:56:30.164Z,6.50
2023-04-02T15:59:03.435Z,4.18
2023-04-02T16:01:35.802Z,22.77
2023-04-02T16:04:19.400Z,5.88
2023-04-02T16:07:09.405Z,5.15
2023-04-02T16:09:40.520Z,8.60
2023-04-02T16:12:12.446Z,5.55
2023-04-02T16:14:44.214Z,4.43
2023-04-02T16:17:24.409Z,4.88
2023-04-02T16:19:54.170Z,5.00
2023-04-02T16:22:25.213Z,4.18
2023-04-02T16:24:57.014Z,4.10
2023-04-02T16:27:26.936Z,3.20
2023-04-02T16:29:59.908Z,4.20
2023-04-02T16:32:40.169Z,4.63
2023-04-02T16:35:38.175Z,4.03
2023-04-02T16:38:07.652Z,3.92
2023-04-02T16:40:38.966Z,3.70
2023-04-02T16:43:13.065Z,4.35
2023-04-02T16:45:43.696Z,3.75
2023-04-02T16:48:14.683Z,3.90
2023-04-02T16:50:47.501Z,3.42
2023-04-02T16:53:22.997Z,3.50
2023-04-02T16:56:03.328Z,3.33
2023-04-02T16:58:37.375Z,3.80
2023-04-02T17:01:08.527Z,3.67
2023-04-02T17:04:10.891Z,3.28
2023-04-02T17:06:42.259Z,3.13
2023-04-02T17:09:16.142Z,3.50
2023-04-02T17:11:46.304Z,4.10
2023-04-02T17:14:21.209Z,3.60
2023-04-02T17:16:51.086Z,2.95
2023-04-02T17:19:18.829Z,3.08
2023-04-02T17:21:47.246Z,3.00
2023-04-02T17:24:22.340Z,2.88
2023-04-02T17:26:52.493Z,2.95
2023-04-02T17:29:21.296Z,2.95
2023-04-02T17:31:49.063Z,3.17
2023-04-02T17:34:17.522Z,3.00
2023-04-02T17:36:48.111Z,3.15
2023-04-02T17:39:20.071Z,2.90
2023-04-02T17:41:49.792Z,3.10
2023-04-02T17:44:29.488Z,2.42
2023-04-02T17:46:59.817Z,2.50
2023-04-02T17:49:37.309Z,2.58
2023-04-02T17:52:06.732Z,2.30
2023-04-02T17:54:40.092Z,3.28
2023-04-02T17:57:16.613Z,2.88
2023-04-02T17:59:50.335Z,3.28
2023-04-02T18:02:28.928Z,2.38
2023-04-02T18:04:58.845Z,2.55
2023-04-02T18:07:32.056Z,2.60
2023-04-02T18:10:04.648Z,2.90
2023-04-02T18:12:44.355Z,2.80
2023-04-02T18:15:28.670Z,2.28
2023-04-02T18:17:59.320Z,2.85
2023-04-02T18:20:30.852Z,2.15
2023-04-02T18:23:01.938Z,2.47
2023-04-02T18:25:42.706Z,2.80
2023-04-02T18:28:17.264Z,2.40
2023-04-02T18:30:48.151Z,2.67
2023-04-02T18:33:22.931Z,2.35
2023-04-02T18:35:54.414Z,2.35
2023-04-02T18:38:24.757Z,2.65
2023-04-02T18:41:08.191Z,2.63
2023-04-02T18:43:43.211Z,2.00
2023-04-02T18:46:14.592Z,2.05
2023-04-02T18:48:45.678Z,2.20
2023-04-02T18:51:16.351Z,1.90
2023-04-02T18:53:44.163Z,2.15
2023-04-02T18:56:15.003Z,2.20
2023-04-02T18:58:49.203Z,2.20
2023-04-02T19:01:18.281Z,2.17
2023-04-02T19:03:47.581Z,1.73
2023-04-02T19:06:19.106Z,1.95
2023-04-02T19:08:48.381Z,2.17
2023-04-02T19:11:18.929Z,1.80
2023-04-02T19:13:48.306Z,1.92
2023-04-02T19:16:35.745Z,2.08
2023-04-02T19:19:06.644Z,2.03
2023-04-02T19:21:37.371Z,1.88
2023-04-02T19:24:13.651Z,1.95
2023-04-02T19:26:45.156Z,2.00
2023-04-02T19:29:19.702Z,1.92
2023-04-02T19:31:50.847Z,1.65
2023-04-02T19:34:21.315Z,1.50
2023-04-02T19:36:49.411Z,1.65
2023-04-02T19:39:30.899Z,2.00
2023-04-02T19:42:01.707Z,1.70
2023-04-02T19:44:29.379Z,1.92
2023-04-02T19:46:57.108Z,1.50
2023-04-02T19:49:26.595Z,1.70
2023-04-02T19:51:54.317Z,1.88
2023-04-02T19:54:22.050Z,1.60
2023-04-02T19:56:49.775Z,1.77
2023-04-02T19:59:19.066Z,1.30
2023-04-02T20:01:46.968Z,1.30
2023-04-02T20:04:14.952Z,1.50
2023-04-02T20:06:43.309Z,1.52
2023-04-02T20:09:11.022Z,1.40
2023-04-02T20:11:39.042Z,1.35
2023-04-02T20:14:06.760Z,1.50
2023-04-02T20:16:36.892Z,1.80
2023-04-02T20:19:04.652Z,1.80
2023-04-02T20:21:37.982Z,1.63
2023-04-02T20:24:06.508Z,1.67
2023-04-02T20:26:34.706Z,1.65
2023-04-02T20:29:02.531Z,1.63
2023-04-02T20:31:31.505Z,1.80
2023-04-02T20:34:02.381Z,1.67
2023-04-02T20:36:30.309Z,1.50
2023-04-02T20:38:58.582Z,1.83
2023-04-02T20:41:26.509Z,1.60
2023-04-02T20:43:54.310Z,1.67
2023-04-02T20:46:22.380Z,1.70
2023-04-02T20:48:50.142Z,1.70
2023-04-02T20:51:19.256Z,1.55
2023-04-02T20:53:47.680Z,1.83
2023-04-02T20:56:16.293Z,1.40
2023-04-02T20:58:44.083Z,1.88
2023-04-02T21:01:12.867Z,1.63
2023-04-02T21:03:40.697Z,2.08
2023-04-02T21:06:12.717Z,1.63
2023-04-02T21:08:41.808Z,1.60
2023-04-02T21:11:09.647Z,1.67
2023-04-02T21:13:37.518Z,1.55
2023-04-02T21:16:05.783Z,1.48
2023-04-02T21:18:33.575Z,1.98
2023-04-02T21:21:01.732Z,1.50
2023-04-02T21:23:29.438Z,1.42
2023-04-02T21:25:59.205Z,1.70
2023-04-02T21:28:26.890Z,1.38
2023-04-02T21:31:01.952Z,1.50
2023-04-02T21:33:29.674Z,1.95
2023-04-02T21:35:57.441Z,1.70
2023-04-02T21:38:25.774Z,1.50
2023-04-02T21:40:53.459Z,1.63
2023-04-02T21:43:22.430Z,1.67
2023-04-02T21:45:50.152Z,1.52
2023-04-02T21:48:17.913Z,1.45
2023-04-02T21:50:46.109Z,1.55
2023-04-02T21:53:13.813Z,1.63
2023-04-02T21:55:41.485Z,1.40
2023-04-02T21:58:09.126Z,1.48
2023-04-02T22:00:38.534Z,1.67
2023-04-02T22:03:06.405Z,1.25
2023-04-02T22:05:34.369Z,1.25
2023-04-02T22:08:02.319Z,1.30
2023-04-02T22:10:30.038Z,1.65
2023-04-02T22:12:57.695Z,1.27
2023-04-02T22:15:25.505Z,1.50
2023-04-02T22:17:54.639Z,1.45
2023-04-02T22:20:22.373Z,1.60
2023-04-02T22:22:50.406Z,1.70
2023-04-02T22:25:18.164Z,1.33
2023-04-02T22:27:45.928Z,1.25
2023-04-02T22:30:14.058Z,1.42
2023-04-02T22:32:41.763Z,1.30
2023-04-02T22:35:11.090Z,1.20
2023-04-02T22:37:38.766Z,1.38
2023-04-02T22:40:07.832Z,1.20
2023-04-02T22:42:35.505Z,1.20
2023-04-02T22:45:04.741Z,1.20
2023-04-02T22:47:32.449Z,1.30
2023-04-02T22:50:00.177Z,1.10
2023-04-02T22:52:29.198Z,1.33
2023-04-02T22:54:56.882Z,1.20
2023-04-02T22:57:24.628Z,1.42
2023-04-02T22:59:52.283Z,1.42
2023-04-02T23:02:19.982Z,1.40
2023-04-02T23:04:47.699Z,1.40
2023-04-02T23:07:15.372Z,1.27
2023-04-02T23:09:44.348Z,1.55
2023-04-02T23:12:12.212Z,1.73
2023-04-02T23:14:39.858Z,1.52
2023-04-02T23:17:07.587Z,1.98
2023-04-02T23:19:35.406Z,1.70
2023-04-02T23:22:03.106Z,1.98
2023-04-02T23:24:30.809Z,2.30
2023-04-02T23:26:59.820Z,2.38
2023-04-02T23:29:27.507Z,2.67
2023-04-02T23:31:55.249Z,3.00
2023-04-02T23:34:22.959Z,3.72
2023-04-02T23:36:50.649Z,4.15
2023-04-02T23:39:20.058Z,4.40
2023-04-02T23:41:48.544Z,4.60
2023-04-02T23:44:17.592Z,5.22
2023-04-02T23:46:45.400Z,5.82
2023-04-02T23:49:13.427Z,6.80
2023-04-02T23:51:41.693Z,7.32
2023-04-02T23:54:09.426Z,8.18
2023-04-02T23:56:37.092Z,9.27
2023-04-02T23:59:04.950Z,9.52
